首页
METAR-TAF:

METAR-TAF

机场 :

伦敦绍森德机场

伦敦Southend, 英格兰

纬度: 51-34N, 经度: 000-42E, 海拔: 15米

当前天气观测

该预报发布于30分钟前的16:50 UTC
风速11节,风向东转东北
温度 20°C
湿度 49%
气压 1022 hPa
能见度10公里或以上
1500米以下无云,无积雨云

METAR: EGMC 011650Z 06011KT CAVOK 20/09 Q1022

时间: 18:20 (17:20 UTC)

预报

该预报发布于3小时和21分钟前的13:59 UTC
预报有效从01日的 15点(UTC)到 01日的 24点(UTC)
风速10节,风向东转东北
能见度10公里或以上
1500米以下无云,无积雨云
成为
从 01日的 22点(UTC)到 01日的 24点(UTC)
风速6节,风向

TAF: EGMC 011359Z 0115/0124 07010KT CAVOK BECMG 0122/0124 35006KT

超过4000个机场的气象观测和天气预报(METAR&TAF报告)。

可查询的气象台以黄色和红色小点在地图上表示。

将鼠标移到小点上方,可查看气象台名称。

然后点击查看天气观测和预报。

如需切换地图:点击带黑十字的绿色按钮放大地图;点击带横线的绿色按钮缩小地图;或者点击绿色箭头查看邻近地区的地图。


METAR-TAF: